Latest Coastal Weather Observations for Cape Byron

IDN60701

Issued at 7:41 am EDT Thursday 24 October 2019 (issued every 10 minutes, with the page automatically refreshed every 10 minutes)

About coastal observations | Map of coastal stations | Coastal observations for NSW | Marine services | Other Formats
Station Details ID: 058216 Name: CAPE BYRON AWS Lat: -28.64 Lon: 153.64 Height: 95.0 m
Data from the previous 72 hours. | See also: Recent months at Cape Byron
Date/Time
EDT
Wind Sea
Height
m
Swell Vis
km
Cloud Weather Temp
°C
Press
hPa
Rain since
9am
mm
Dir  Spd
kts
Gust
kts
Height
m
Period
s
Dir
24/07:30am N 6 8 - - - - - - - 18.0 1021.4 0.0
24/07:00am N 7 8 - - - - - - - 17.5 1021.2 0.0
24/06:30am NNW 6 9 - - - - - - - 16.8 1021.1 0.0
24/06:00am NNW 6 9 - - - - - - - 16.6 1020.7 0.0
24/05:30am NNW 6 10 - - - - - - - 16.6 1020.6 0.0
24/05:00am NNW 5 7 - - - - - - - 16.7 1020.4 0.0
24/04:30am NW 5 9 - - - - - - - 17.4 1020.5 0.0
24/04:00am NNW 9 15 - - - - - - - 18.3 1020.5 0.0
24/03:30am N 9 14 - - - - - - - 18.4 1020.7 0.0
24/03:00am N 9 13 - - - - - - - 18.5 1020.9 0.0
24/02:30am N 9 13 - - - - - - - 18.5 1021.3 0.0
24/02:00am N 8 13 - - - - - - - 18.3 1021.6 0.0
24/01:30am NNW 7 11 - - - - - - - 18.3 1022.0 0.0
24/01:00am N 8 11 - - - - - - - 18.5 1022.3 0.0
24/12:30am N 8 14 - - - - - - - 18.6 1022.6 0.0
24/12:00am N 9 13 - - - - - - - 18.8 1022.8 0.0
 
Date/Time
EDT
Wind Sea
Height
m
Swell Vis
km
Cloud Weather Temp
°C
Press
hPa
Rain since
9am
mm
Dir  Spd
kts
Gust
kts
Height
m
Period
s
Dir
23/11:30pm N 9 13 - - - - - - - 18.9 1023.0 0.0
23/11:00pm N 9 13 - - - - - - - 19.2 1023.1 0.0
23/10:30pm N 14 18 - - - - - - - 19.6 1023.1 0.0
23/10:00pm NNE 12 17 - - - - - - - 19.7 1023.4 0.0
23/09:30pm NNE 13 19 - - - - - - - 19.8 1023.3 0.0
23/09:00pm NNE 13 17 - - - - - - - 19.7 1023.2 0.0
23/08:30pm NE 10 14 - - - - - - - 19.8 1023.1 0.0
23/08:00pm NE 11 15 - - - - - - - 19.8 1023.1 0.0
23/07:30pm NE 12 15 - - - - - - - 19.9 1022.8 0.0
23/07:00pm NE 13 15 - - - - - - - 20.2 1022.7 0.0
23/06:30pm NE 13 15 - - - - - - - 21.7 1022.5 0.0
23/06:00pm NE 13 15 - - - - - - - 23.5 1022.2 0.0
23/05:30pm ENE 12 16 - - - - - - - 24.3 1022.1 0.0
23/05:00pm ENE 11 15 - - - - - - - 25.4 1022.1 0.0
23/04:30pm ENE 10 13 - - - - - - - 26.0 1022.1 0.0
23/04:00pm ENE 7 11 - - - - - - - 25.7 1022.3 0.0
23/03:30pm E 8 11 - - - - - - - 24.3 1022.3 0.0
23/03:00pm E 9 12 - - - - - - - 24.1 1022.4 0.0
23/02:30pm E 8 12 - - - - - - - 24.5 1023.0 0.0
23/02:00pm E 8 12 - - - - - - - 24.2 1023.4 0.0
23/01:30pm E 9 11 - - - - - - - 25.6 1023.9 0.0
23/01:00pm E 8 9 - - - - - - - 25.5 1024.1 0.0
23/12:30pm E 9 11 - - - - - - - 24.9 1024.4 0.0
23/12:00pm E 9 11 - - - - - - - 23.7 1024.7 0.0
23/11:30am E 9 11 - - - - - - - 23.6 1025.0 0.0
23/11:00am SE 8 9 - - - - - - - 22.8 1025.3 0.0
23/10:30am SE 6 8 - - - - - - - 21.8 1025.4 0.0
23/10:00am S 7 9 - - - - - - - 20.6 1025.3 0.0
23/09:30am S 6 7 - - - - - - - 20.0 1025.2 0.0
23/09:00am SSW 5 7 - - - - - - - 20.0 1025.1 0.2
23/08:30am SW 6 8 - - - - - - - 18.7 1025.0 0.2
23/08:00am SW 7 9 - - - - - - - 17.6 1024.7 0.2
23/07:30am SW 7 9 - - - - - - - 17.2 1024.4 0.2
23/07:00am SW 5 6 - - - - - - - 17.0 1024.2 0.2
23/06:30am SSW 6 6 - - - - - - - 17.1 1023.9 0.2
23/06:00am S 5 5 - - - - - - - 17.4 1023.6 0.2
23/05:30am SSW 5 5 - - - - - - - 17.2 1023.4 0.2
23/05:00am S 5 6 - - - - - - - 17.2 1023.2 0.2
23/04:30am SSW 4 5 - - - - - - - 17.4 1023.2 0.2
23/04:00am SW 5 6 - - - - - - - 17.4 1023.2 0.2
23/03:30am SW 4 5 - - - - - - - 17.3 1023.2 0.2
23/03:00am SSW 5 5 - - - - - - - 17.6 1023.5 0.2
23/02:30am ESE 4 5 - - - - - - - 18.2 1023.6 0.2
23/02:00am SE 5 7 - - - - - - - 18.4 1023.7 0.2
23/01:30am E 5 8 - - - - - - - 18.5 1024.0 0.2
23/01:00am ENE 6 8 - - - - - - - 18.6 1024.4 0.2
23/12:30am ENE 4 6 - - - - - - - 18.2 1024.7 0.2
23/12:00am E 4 6 - - - - - - - 18.4 1024.9 0.2
 
Date/Time
EDT
Wind Sea
Height
m
Swell Vis
km
Cloud Weather Temp
°C
Press
hPa
Rain since
9am
mm
Dir  Spd
kts
Gust
kts
Height
m
Period
s
Dir
22/11:30pm E 6 9 - - - - - - - 18.4 1025.0 0.2
22/11:00pm ENE 2 5 - - - - - - - 18.5 1025.0 0.2
22/10:30pm ENE 5 6 - - - - - - - 18.4 1025.2 0.2
22/10:00pm E 4 7 - - - - - - - 18.7 1025.2 0.2
22/09:30pm ESE 3 5 - - - - - - - 18.4 1025.2 0.2
22/09:00pm E 5 7 - - - - - - - 18.3 1025.0 0.2
22/08:30pm ESE 4 6 - - - - - - - 18.3 1024.8 0.2
22/08:00pm E 5 8 - - - - - - - 18.5 1024.7 0.2
22/07:30pm ENE 5 8 - - - - - - - 18.9 1024.3 0.2
22/07:00pm ENE 7 9 - - - - - - - 19.8 1024.0 0.2
22/06:30pm E 7 11 - - - - - - - 20.9 1023.7 0.2
22/06:00pm E 9 11 - - - - - - - 22.6 1023.3 0.2
22/05:30pm E 9 11 - - - - - - - 22.0 1023.1 0.2
22/05:00pm SE 9 11 - - - - - - - 20.4 1023.1 0.2
22/04:30pm SE 11 13 - - - - - - - 20.1 1023.0 0.2
22/04:00pm SE 13 15 - - - - - - - 19.7 1023.1 0.2
22/03:30pm SSE 10 13 - - - - - - - 20.6 1023.3 0.2
22/03:00pm SE 11 15 - - - - - - - 20.2 1023.5 0.2
22/02:30pm SE 10 13 - - - - - - - 21.8 1023.7 0.2
22/02:00pm SE 9 11 - - - - - - - 21.2 1024.0 0.2
22/01:30pm SSE 10 13 - - - - - - - 20.5 1024.4 0.2
22/01:00pm S 8 10 - - - - - - - 20.2 1024.5 0.0
22/12:30pm S 11 14 - - - - - - - 18.9 1024.8 0.0
22/12:00pm S 11 14 - - - - - - - 18.6 1025.2 0.0
22/11:30am S 13 16 - - - - - - - 18.3 1025.4 0.0
22/11:00am S 17 19 - - - - - - - 17.8 1025.7 0.0
22/10:30am S 14 17 - - - - - - - 17.7 1026.0 0.0
22/10:00am SE 12 17 - - - - - - - 18.3 1026.0 0.0
22/09:30am SSW 8 10 - - - - - - - 18.7 1025.8 0.0
22/09:00am SSW 8 11 - - - - - - - 18.5 1025.6 1.4
22/08:30am SW 9 12 - - - - - - - 17.0 1025.2 1.4
22/08:00am WSW 11 13 - - - - - - - 15.9 1025.0 1.4
22/07:30am WSW 11 14 - - - - - - - 15.2 1024.9 1.4
22/07:00am SSW 7 9 - - - - - - - 14.6 1024.9 1.4
22/06:30am WSW 12 15 - - - - - - - 14.8 1024.4 1.2
22/06:00am WSW 13 15 - - - - - - - 14.5 1024.2 1.2
22/05:30am W 13 16 - - - - - - - 14.4 1024.1 1.2
22/05:00am W 10 13 - - - - - - - 14.4 1024.0 1.2
22/04:30am SW 8 12 - - - - - - - 15.1 1024.4 0.8
22/04:00am SW 7 8 - - - - - - - 16.0 1024.2 0.0
22/03:30am SW 7 11 - - - - - - - 16.6 1024.0 0.0
22/03:00am WSW 8 10 - - - - - - - 17.0 1024.0 0.0
22/02:30am SW 6 7 - - - - - - - 17.1 1024.3 0.0
22/02:00am S 5 8 - - - - - - - 17.3 1024.6 0.0
22/01:30am ESE 7 10 - - - - - - - 18.0 1024.9 0.0
22/01:00am ESE 10 12 - - - - - - - 18.6 1025.2 0.0
22/12:30am ESE 10 13 - - - - - - - 18.8 1025.4 0.0
22/12:00am E 10 13 - - - - - - - 18.8 1025.5 0.0
 
Date/Time
EDT
Wind Sea
Height
m
Swell Vis
km
Cloud Weather Temp
°C
Press
hPa
Rain since
9am
mm
Dir  Spd
kts
Gust
kts
Height
m
Period
s
Dir
21/11:30pm E 12 15 - - - - - - - 18.7 1025.6 0.0
21/11:00pm E 10 12 - - - - - - - 18.5 1025.5 0.0
21/10:30pm E 11 14 - - - - - - - 18.4 1025.6 0.0
21/10:00pm S 6 9 - - - - - - - 18.4 1025.8 0.0
21/09:30pm S 10 12 - - - - - - - 18.9 1025.8 0.0
21/09:00pm S 12 15 - - - - - - - 18.8 1025.7 0.0
21/08:30pm S 12 15 - - - - - - - 18.9 1025.6 0.0
21/08:00pm S 13 16 - - - - - - - 18.8 1025.4 0.0
21/07:30pm S 12 15 - - - - - - - 18.9 1025.3 0.0
21/07:00pm SSE 12 16 - - - - - - - 19.0 1025.0 0.0
21/06:30pm S 13 16 - - - - - - - 19.5 1024.8 0.0
21/06:00pm S 16 19 - - - - - - - 19.8 1024.5 0.0
21/05:30pm S 17 20 - - - - - - - 20.3 1024.3 0.0
21/05:00pm S 17 20 - - - - - - - 20.3 1024.2 0.0
21/04:30pm S 17 19 - - - - - - - 20.5 1024.1 0.0
21/04:00pm S 18 21 - - - - - - - 20.5 1024.0 0.0
21/03:30pm S 16 20 - - - - - - - 20.9 1024.1 0.0
21/03:00pm S 18 21 - - - - - - - 20.6 1024.2 0.0
21/02:30pm S 19 22 - - - - - - - 21.0 1024.4 0.0
21/02:00pm SSW 17 21 - - - - - - - 20.4 1024.7 0.0
21/01:30pm S 17 20 - - - - - - - 20.2 1024.9 0.0
21/01:00pm S 13 15 - - - - - - - 20.8 1025.1 0.0
21/12:30pm S 11 13 - - - - - - - 21.8 1025.3 0.0
21/12:00pm SSE 11 15 - - - - - - - 22.1 1025.6 0.0
21/11:30am SSE 11 15 - - - - - - - 22.1 1025.7 0.0
21/11:00am SE 11 17 - - - - - - - 21.5 1025.8 0.0
21/10:30am SE 12 16 - - - - - - - 21.0 1026.0 0.0
21/10:00am SE 13 19 - - - - - - - 21.5 1026.0 0.0
21/09:30am SE 14 20 - - - - - - - 21.0 1025.9 0.0
21/09:00am SE 15 19 - - - - - - - 20.4 1025.6 0.2
21/08:30am SE 17 23 - - - - - - - 20.8 1025.3 0.2
21/08:00am SE 17 22 - - - - - - - 19.6 1025.0 0.2

Other formats

Comma delimited format used in spreadsheet applications
http://www.bom.gov.au/fwo/IDN60701/IDN60701.94599.axf

JavaScript Object Notation format (JSON) in row-major order
http://www.bom.gov.au/fwo/IDN60701/IDN60701.94599.json

Data quality

Most of these data are generated automatically and are frequently updated. Quality checks on data are not normally performed. It is possible for incorrect values to appear. Refer to information at About Latest Weather Observations and please check the disclaimer before using these data.